Jawor — C6YH8 — position and weather

sailwx.info

Track history (hours):
 
Tides and Currents Weather Stations Pressure Air Temp Water Temp Dewpoint Dewpoint Depression Visibility Wind Speed Wind Dir Waves Ship Positions

Jawor

Last reported at 2014-Nov-30 15:32 UTC. Time now 2014-Dec-19 13:42 UTC.
Position N 22°39' E 119°40'.
Warning: this ship's position is 18 days out of date.

Length 229 m; draft 7.1 m.

Type: Cargo ship. MMSI: 311034100.

Date/timePositionNaut miles runAvg speedWind from/ knotsBaromVisibWave heightAir tempDewpointWater temp
2014-Nov-30 15:32N 22°39' E 119°40'11312.6
2014-Nov-30 06:33N 24°28' E 119°06'1111.0
2014-Nov-30 05:33N 24°39' E 119°08'1211.7
2014-Nov-30 04:33N 24°50' E 119°06'7 6.3
2014-Nov-30 03:31N 24°57' E 119°06'0 0.1
2014-Nov-30 02:31N 24°57' E 119°06'0 0.1
2014-Nov-30 01:25N 24°57' E 119°06'0 0.1
2014-Nov-30 00:31N 24°57' E 119°06'0 0.1
2014-Nov-29 23:31N 24°57' E 119°06'0 0.1
2014-Nov-29 22:28N 24°57' E 119°06'0 0.1
2014-Nov-29 21:25N 24°57' E 119°06'0 0.1
2014-Nov-29 20:31N 24°57' E 119°06'0 0.1
2014-Nov-29 19:31N 24°57' E 119°06'0 0.1
2014-Nov-29 18:31N 24°57' E 119°06'0 0.0
2014-Nov-29 17:31N 24°57' E 119°06'0 0.0
2014-Nov-29 16:31N 24°57' E 119°06'0 0.1
2014-Nov-29 15:31N 24°57' E 119°06'0 0.1
2014-Nov-29 14:31N 24°57' E 119°06'0 0.0
2014-Nov-29 09:28N 24°57' E 119°06'0 0.0
2014-Nov-29 08:31N 24°57' E 119°06'1 0.7
2014-Nov-29 07:33N 24°57' E 119°05'5 4.5
2014-Nov-29 06:33N 25°01' E 119°03'1010.4
2014-Nov-29 05:33N 25°12' E 119°00'3 1.2
2014-Nov-29 03:19N 25°13' E 118°58'0 0.0
2014-Nov-29 02:30N 25°13' E 118°58'0 0.0
2014-Nov-29 00:30N 25°13' E 118°58'0 0.0
2014-Nov-28 23:13N 25°13' E 118°58'0 0.0
2014-Nov-28 20:18N 25°13' E 118°58'0 0.0
2014-Nov-28 18:31N 25°13' E 118°58'0 0.0
2014-Nov-28 17:18N 25°13' E 118°58'0 0.0
2014-Nov-28 16:24N 25°12' E 118°58'0 0.0
2014-Nov-28 15:18N 25°13' E 118°58'0 0.0
2014-Nov-28 14:07N 25°13' E 118°58'0 0.0
2014-Nov-28 12:06N 25°13' E 118°58'0 0.0
2014-Nov-28 11:25N 25°13' E 118°58'0 0.0
2014-Nov-28 10:25N 25°13' E 118°58'0 0.0
2014-Nov-28 09:19N 25°13' E 118°58'0 0.0
2014-Nov-28 03:19N 25°13' E 118°58'0 0.0
2014-Nov-28 02:06N 25°12' E 118°58'0 0.0
2014-Nov-28 01:24N 25°12' E 118°58'0 0.0
2014-Nov-28 00:18N 25°12' E 118°58'0 0.0
2014-Nov-27 23:24N 25°13' E 118°58'0 0.0
2014-Nov-27 22:06N 25°13' E 118°58'0 0.0
2014-Nov-27 21:24N 25°13' E 118°58'0 0.0
2014-Nov-27 20:30N 25°13' E 118°58'0 0.0
2014-Nov-27 19:18N 25°13' E 118°58'0 0.0
2014-Nov-27 17:24N 25°13' E 118°58'0 0.0
2014-Nov-27 16:30N 25°13' E 118°58'0 0.0
2014-Nov-27 15:30N 25°13' E 118°58'0 0.0
2014-Nov-27 14:24N 25°13' E 118°58'0 0.0
2014-Nov-27 13:06N 25°13' E 118°58'0 0.0
2014-Nov-27 12:12N 25°13' E 118°58'0 0.0
2014-Nov-27 10:30N 25°13' E 118°58'0 0.0
2014-Nov-27 09:30N 25°13' E 118°58'0 0.0
2014-Nov-27 07:30N 25°13' E 118°58'0 0.0
2014-Nov-27 06:30N 25°13' E 118°58'0 0.0
2014-Nov-27 05:18N 25°13' E 118°58'0 0.0
2014-Nov-27 04:18N 25°13' E 118°58'0 0.0
2014-Nov-27 03:24N 25°13' E 118°58'0 0.0
2014-Nov-27 02:12N 25°13' E 118°58'0 0.0
2014-Nov-27 01:18N 25°13' E 118°58'0 0.0
2014-Nov-27 00:30N 25°13' E 118°58'0 0.0
2014-Nov-26 23:30N 25°13' E 118°58'0 0.0
2014-Nov-26 22:24N 25°13' E 118°58'0 0.0
2014-Nov-26 20:18N 25°13' E 118°58'0 0.0
2014-Nov-26 19:06N 25°13' E 118°58'0 0.0
2014-Nov-26 18:30N 25°13' E 118°58'0 0.0
2014-Nov-26 17:24N 25°13' E 118°58'0 0.0
2014-Nov-26 16:30N 25°13' E 118°58'0 0.0
2014-Nov-26 13:30N 25°13' E 118°58'0 0.0
2014-Nov-26 12:30N 25°13' E 118°58'0 0.0
2014-Nov-26 11:06N 25°13' E 118°58'0 0.0
2014-Nov-26 10:24N 25°13' E 118°58'0 0.0
2014-Nov-26 09:30N 25°13' E 118°58'0 0.0
2014-Nov-26 07:33N 25°13' E 118°58'4 3.8
2014-Nov-26 06:32N 25°10' E 119°00'8 8.0
2014-Nov-26 05:33N 25°02' E 119°03'2 2.2
2014-Nov-26 04:30N 24°60' E 119°03'0 0.0
2014-Nov-26 03:24N 24°60' E 119°03'0 0.0
2014-Nov-26 02:30N 24°60' E 119°03'0 0.4
2014-Nov-26 01:33N 25°00' E 119°03'2 1.8
2014-Nov-26 00:28N 25°02' E 119°02'0 0.3
2014-Nov-25 23:31N 25°02' E 119°03'0 0.1
2014-Nov-25 22:28N 25°02' E 119°02'0 0.1
2014-Nov-25 21:31N 25°02' E 119°03'0 0.0
2014-Nov-25 20:22N 25°02' E 119°02'0 0.0
2014-Nov-25 19:28N 25°02' E 119°02'0 0.0
2014-Nov-25 18:28N 25°02' E 119°02'0 0.2
2014-Nov-25 17:28N 25°02' E 119°02'0 0.1
2014-Nov-25 16:31N 25°02' E 119°02'0 0.1
2014-Nov-25 15:32N 25°02' E 119°02'0 0.0
2014-Nov-25 14:31N 25°02' E 119°02'0 0.0
2014-Nov-25 13:16N 25°02' E 119°02'0 0.0
2014-Nov-25 12:25N 25°02' E 119°02'0 0.2
2014-Nov-25 11:28N 25°02' E 119°02'0 0.1
2014-Nov-25 09:25N 25°02' E 119°02'0 0.1
2014-Nov-25 08:31N 25°02' E 119°03'0 0.1
2014-Nov-25 07:29N 25°02' E 119°02'0 0.0
2014-Nov-25 06:29N 25°02' E 119°02'0 0.2
2014-Nov-25 05:32N 25°02' E 119°02'0 0.1
2014-Nov-25 04:29N 25°02' E 119°02'0 0.0
2014-Nov-25 03:30N 25°02' E 119°02'0 0.1
2014-Nov-25 02:29N 25°02' E 119°02'0 0.0
2014-Nov-25 01:29N 25°02' E 119°02'0 0.0
2014-Nov-25 00:23N 25°02' E 119°02'0 0.1
2014-Nov-24 22:29N 25°02' E 119°03'0 0.1
2014-Nov-24 21:29N 25°02' E 119°02'0 0.0
2014-Nov-24 20:27N 25°02' E 119°02'3 2.8
2014-Nov-24 19:33N 24°60' E 119°04'8 7.7
2014-Nov-24 18:32N 24°52' E 119°05'1010.2
2014-Nov-24 17:33N 24°42' E 119°06'1111.0
2014-Nov-24 16:33N 24°31' E 119°08'1110.6
2014-Nov-24 15:30N 24°20' E 119°10'6112.0
2014-Nov-24 10:27N 23°20' E 119°16'1011.0
2014-Nov-24 09:33N 23°10' E 119°19'  
Track history (hours):
 
Tides and Currents Weather Stations Pressure Air Temp Water Temp Dewpoint Dewpoint Depression Visibility Wind Speed Wind Dir Waves Ship Positions

Jawor

Last reported at 2014-Nov-30 15:32 UTC. Time now 2014-Dec-19 13:42 UTC.
Position N 22°39' E 119°40'.
Warning: this ship's position is 18 days out of date.

Length 229 m; draft 7.1 m.

Type: Cargo ship. MMSI: 311034100.

Date/timePositionNaut miles runAvg speedWind from/ knotsBaromVisibWave heightAir tempDewpointWater temp
2014-Nov-30 15:32N 22°39' E 119°40'11312.6
2014-Nov-30 06:33N 24°28' E 119°06'1111.0
2014-Nov-30 05:33N 24°39' E 119°08'1211.7
2014-Nov-30 04:33N 24°50' E 119°06'7 6.3
2014-Nov-30 03:31N 24°57' E 119°06'0 0.1
2014-Nov-30 02:31N 24°57' E 119°06'0 0.1
2014-Nov-30 01:25N 24°57' E 119°06'0 0.1
2014-Nov-30 00:31N 24°57' E 119°06'0 0.1
2014-Nov-29 23:31N 24°57' E 119°06'0 0.1
2014-Nov-29 22:28N 24°57' E 119°06'0 0.1
2014-Nov-29 21:25N 24°57' E 119°06'0 0.1
2014-Nov-29 20:31N 24°57' E 119°06'0 0.1
2014-Nov-29 19:31N 24°57' E 119°06'0 0.1
2014-Nov-29 18:31N 24°57' E 119°06'0 0.0
2014-Nov-29 17:31N 24°57' E 119°06'0 0.0
2014-Nov-29 16:31N 24°57' E 119°06'0 0.1
2014-Nov-29 15:31N 24°57' E 119°06'0 0.1
2014-Nov-29 14:31N 24°57' E 119°06'0 0.0
2014-Nov-29 09:28N 24°57' E 119°06'0 0.0
2014-Nov-29 08:31N 24°57' E 119°06'1 0.7
2014-Nov-29 07:33N 24°57' E 119°05'5 4.5
2014-Nov-29 06:33N 25°01' E 119°03'1010.4
2014-Nov-29 05:33N 25°12' E 119°00'3 1.2
2014-Nov-29 03:19N 25°13' E 118°58'0 0.0
2014-Nov-29 02:30N 25°13' E 118°58'0 0.0
2014-Nov-29 00:30N 25°13' E 118°58'0 0.0
2014-Nov-28 23:13N 25°13' E 118°58'0 0.0
2014-Nov-28 20:18N 25°13' E 118°58'0 0.0
2014-Nov-28 18:31N 25°13' E 118°58'0 0.0
2014-Nov-28 17:18N 25°13' E 118°58'0 0.0
2014-Nov-28 16:24N 25°12' E 118°58'0 0.0
2014-Nov-28 15:18N 25°13' E 118°58'0 0.0
2014-Nov-28 14:07N 25°13' E 118°58'0 0.0
2014-Nov-28 12:06N 25°13' E 118°58'0 0.0
2014-Nov-28 11:25N 25°13' E 118°58'0 0.0
2014-Nov-28 10:25N 25°13' E 118°58'0 0.0
2014-Nov-28 09:19N 25°13' E 118°58'0 0.0
2014-Nov-28 03:19N 25°13' E 118°58'0 0.0
2014-Nov-28 02:06N 25°12' E 118°58'0 0.0
2014-Nov-28 01:24N 25°12' E 118°58'0 0.0
2014-Nov-28 00:18N 25°12' E 118°58'0 0.0
2014-Nov-27 23:24N 25°13' E 118°58'0 0.0
2014-Nov-27 22:06N 25°13' E 118°58'0 0.0
2014-Nov-27 21:24N 25°13' E 118°58'0 0.0
2014-Nov-27 20:30N 25°13' E 118°58'0 0.0
2014-Nov-27 19:18N 25°13' E 118°58'0 0.0
2014-Nov-27 17:24N 25°13' E 118°58'0 0.0
2014-Nov-27 16:30N 25°13' E 118°58'0 0.0
2014-Nov-27 15:30N 25°13' E 118°58'0 0.0
2014-Nov-27 14:24N 25°13' E 118°58'0 0.0
2014-Nov-27 13:06N 25°13' E 118°58'0 0.0
2014-Nov-27 12:12N 25°13' E 118°58'0 0.0
2014-Nov-27 10:30N 25°13' E 118°58'0 0.0
2014-Nov-27 09:30N 25°13' E 118°58'0 0.0
2014-Nov-27 07:30N 25°13' E 118°58'0 0.0
2014-Nov-27 06:30N 25°13' E 118°58'0 0.0
2014-Nov-27 05:18N 25°13' E 118°58'0 0.0
2014-Nov-27 04:18N 25°13' E 118°58'0 0.0
2014-Nov-27 03:24N 25°13' E 118°58'0 0.0
2014-Nov-27 02:12N 25°13' E 118°58'0 0.0
2014-Nov-27 01:18N 25°13' E 118°58'0 0.0
2014-Nov-27 00:30N 25°13' E 118°58'0 0.0
2014-Nov-26 23:30N 25°13' E 118°58'0 0.0
2014-Nov-26 22:24N 25°13' E 118°58'0 0.0
2014-Nov-26 20:18N 25°13' E 118°58'0 0.0
2014-Nov-26 19:06N 25°13' E 118°58'0 0.0
2014-Nov-26 18:30N 25°13' E 118°58'0 0.0
2014-Nov-26 17:24N 25°13' E 118°58'0 0.0
2014-Nov-26 16:30N 25°13' E 118°58'0 0.0
2014-Nov-26 13:30N 25°13' E 118°58'0 0.0
2014-Nov-26 12:30N 25°13' E 118°58'0 0.0
2014-Nov-26 11:06N 25°13' E 118°58'0 0.0
2014-Nov-26 10:24N 25°13' E 118°58'0 0.0
2014-Nov-26 09:30N 25°13' E 118°58'0 0.0
2014-Nov-26 07:33N 25°13' E 118°58'4 3.8
2014-Nov-26 06:32N 25°10' E 119°00'8 8.0
2014-Nov-26 05:33N 25°02' E 119°03'2 2.2
2014-Nov-26 04:30N 24°60' E 119°03'0 0.0
2014-Nov-26 03:24N 24°60' E 119°03'0 0.0
2014-Nov-26 02:30N 24°60' E 119°03'0 0.4
2014-Nov-26 01:33N 25°00' E 119°03'2 1.8
2014-Nov-26 00:28N 25°02' E 119°02'0 0.3
2014-Nov-25 23:31N 25°02' E 119°03'0 0.1
2014-Nov-25 22:28N 25°02' E 119°02'0 0.1
2014-Nov-25 21:31N 25°02' E 119°03'0 0.0
2014-Nov-25 20:22N 25°02' E 119°02'0 0.0
2014-Nov-25 19:28N 25°02' E 119°02'0 0.0
2014-Nov-25 18:28N 25°02' E 119°02'0 0.2
2014-Nov-25 17:28N 25°02' E 119°02'0 0.1
2014-Nov-25 16:31N 25°02' E 119°02'0 0.1
2014-Nov-25 15:32N 25°02' E 119°02'0 0.0
2014-Nov-25 14:31N 25°02' E 119°02'0 0.0
2014-Nov-25 13:16N 25°02' E 119°02'0 0.0
2014-Nov-25 12:25N 25°02' E 119°02'0 0.2
2014-Nov-25 11:28N 25°02' E 119°02'0 0.1
2014-Nov-25 09:25N 25°02' E 119°02'0 0.1
2014-Nov-25 08:31N 25°02' E 119°03'0 0.1
2014-Nov-25 07:29N 25°02' E 119°02'0 0.0
2014-Nov-25 06:29N 25°02' E 119°02'0 0.2
2014-Nov-25 05:32N 25°02' E 119°02'0 0.1
2014-Nov-25 04:29N 25°02' E 119°02'0 0.0
2014-Nov-25 03:30N 25°02' E 119°02'0 0.1
2014-Nov-25 02:29N 25°02' E 119°02'0 0.0
2014-Nov-25 01:29N 25°02' E 119°02'0 0.0
2014-Nov-25 00:23N 25°02' E 119°02'0 0.1
2014-Nov-24 22:29N 25°02' E 119°03'0 0.1
2014-Nov-24 21:29N 25°02' E 119°02'0 0.0
2014-Nov-24 20:27N 25°02' E 119°02'3 2.8
2014-Nov-24 19:33N 24°60' E 119°04'8 7.7
2014-Nov-24 18:32N 24°52' E 119°05'1010.2
2014-Nov-24 17:33N 24°42' E 119°06'1111.0
2014-Nov-24 16:33N 24°31' E 119°08'1110.6
2014-Nov-24 15:30N 24°20' E 119°10'6112.0
2014-Nov-24 10:27N 23°20' E 119°16'1011.0
2014-Nov-24 09:33N 23°10' E 119°19'  

Dump ship's entire track history